Time;durP1;ratioP1;P1;durP2;ratioP2;P2;SDS_P1;SDS_P2;PMS_P1;PMS_P2;Temp;Humidity;BMP_temperature;BMP_pressure;BME280_temperature;BME280_humidity;BME280_pressure;Samples;Min_cycle;Max_cycle;Signal;HPM_P1;HPM_P2
2021/01/22 00:04:48;;;;;;;4.15;1.58;;;10.30;99.90;;;;;;5034478;28;20145;-81
2021/01/22 00:07:22;;;;;;;2.47;1.30;;;10.30;99.90;;;;;;5051570;28;20045;-81
2021/01/22 00:10:27;;;;;;;4.47;1.75;;;10.30;99.90;;;;;;5049450;28;20476;-80
2021/01/22 00:15:42;;;;;;;2.72;1.50;;;10.40;99.90;;;;;;5038942;28;20077;-79
2021/01/22 00:18:42;;;;;;;4.07;1.98;;;10.40;99.90;;;;;;5025699;28;20054;-80
2021/01/22 00:24:49;;;;;;;2.72;1.95;;;10.50;99.90;;;;;;4981473;28;20061;-80
2021/01/22 00:27:18;;;;;;;7.30;2.25;;;10.50;99.90;;;;;;5022893;28;20177;-79
2021/01/22 00:29:50;;;;;;;10.05;2.30;;;10.50;99.90;;;;;;5026741;28;20067;-81
2021/01/22 00:32:17;;;;;;;9.60;2.70;;;10.50;99.90;;;;;;5020950;28;20046;-78
2021/01/22 00:38:12;;;;;;;10.63;2.78;;;10.80;99.90;;;;;;4956568;29;20697;-79
2021/01/22 00:40:51;;;;;;;6.82;2.53;;;10.70;99.90;;;;;;5005334;28;20053;-80
2021/01/22 00:43:17;;;;;;;6.82;2.28;;;10.70;99.90;;;;;;5016653;28;20046;-79
2021/01/22 00:45:46;;;;;;;6.70;2.20;;;10.70;99.90;;;;;;5016835;28;20079;-80
2021/01/22 00:48:12;;;;;;;5.03;2.50;;;10.80;99.90;;;;;;5016981;28;20050;-78
2021/01/22 00:50:39;;;;;;;8.23;2.58;;;10.80;99.90;;;;;;5015211;28;20053;-80
2021/01/22 00:53:05;;;;;;;5.88;2.40;;;10.80;99.90;;;;;;5015521;28;20129;-79
2021/01/22 00:55:32;;;;;;;13.32;2.40;;;10.80;99.90;;;;;;5016110;28;20089;-82
2021/01/22 00:57:59;;;;;;;4.38;2.00;;;10.90;99.90;;;;;;5015444;28;20140;-76
2021/01/22 01:00:25;;;;;;;11.00;2.47;;;10.90;99.90;;;;;;5015398;28;20101;-81
2021/01/22 01:02:52;;;;;;;3.72;1.77;;;10.90;99.90;;;;;;5019121;28;20069;-79
2021/01/22 01:05:18;;;;;;;3.83;2.10;;;10.90;99.90;;;;;;5017872;28;20057;-78
2021/01/22 01:07:45;;;;;;;4.13;2.22;;;10.90;99.90;;;;;;5017872;28;20073;-81
2021/01/22 01:10:12;;;;;;;6.60;2.13;;;10.90;99.90;;;;;;5019476;28;20085;-80
2021/01/22 01:12:38;;;;;;;6.20;2.20;;;10.90;99.90;;;;;;5019181;28;20135;-80
2021/01/22 01:15:07;;;;;;;4.00;1.88;;;10.90;99.90;;;;;;5020743;28;20043;-81
2021/01/22 01:17:34;;;;;;;7.22;2.28;;;10.80;99.90;;;;;;5020138;28;20085;-81
2021/01/22 01:20:02;;;;;;;4.55;2.05;;;10.80;99.90;;;;;;5023831;28;20053;-80
2021/01/22 01:22:28;;;;;;;3.25;1.95;;;10.80;99.90;;;;;;5021942;28;20093;-79
2021/01/22 01:24:55;;;;;;;6.82;2.15;;;10.70;99.90;;;;;;5021687;28;20088;-80
2021/01/22 01:27:21;;;;;;;5.05;2.10;;;10.70;99.90;;;;;;5022765;28;20049;-79
2021/01/22 01:29:47;;;;;;;4.57;1.83;;;10.70;99.90;;;;;;5024772;28;20077;-79
2021/01/22 01:32:15;;;;;;;5.53;1.85;;;10.70;99.90;;;;;;5023269;28;20096;-79
2021/01/22 01:34:41;;;;;;;5.68;2.28;;;10.70;99.90;;;;;;5024021;28;20058;-80
2021/01/22 01:37:07;;;;;;;3.22;1.85;;;10.60;99.90;;;;;;5019934;28;20077;-80
2021/01/22 01:39:34;;;;;;;6.32;1.90;;;10.60;99.90;;;;;;5018014;28;20077;-79
2021/01/22 01:42:00;;;;;;;5.97;2.17;;;10.60;99.90;;;;;;5021733;28;20192;-79
2021/01/22 01:44:26;;;;;;;9.48;2.53;;;10.60;99.90;;;;;;5022434;28;20068;-79
2021/01/22 01:46:53;;;;;;;5.00;1.95;;;10.60;99.90;;;;;;5020807;28;20081;-79
2021/01/22 01:49:20;;;;;;;5.45;1.88;;;10.60;99.90;;;;;;5018680;28;20085;-80
2021/01/22 01:51:47;;;;;;;5.78;1.77;;;10.60;99.90;;;;;;5017471;28;20073;-80
2021/01/22 01:54:14;;;;;;;5.18;1.88;;;10.70;99.90;;;;;;5016569;28;20092;-78
2021/01/22 01:56:41;;;;;;;6.28;2.33;;;10.70;99.90;;;;;;5014624;28;20120;-79
2021/01/22 01:59:08;;;;;;;4.80;1.90;;;10.60;99.90;;;;;;5015420;28;20088;-77
2021/01/22 02:01:36;;;;;;;2.25;1.35;;;9.90;99.90;;;;;;5015930;28;20085;-81
2021/01/22 02:04:03;;;;;;;2.30;1.55;;;9.10;99.90;;;;;;5017434;28;20050;-80
2021/01/22 02:06:31;;;;;;;3.08;1.25;;;8.50;99.90;;;;;;5018348;28;20081;-78
2021/01/22 02:08:58;;;;;;;1.58;1.17;;;8.20;99.90;;;;;;5018858;28;20169;-81
2021/01/22 02:11:27;;;;;;;2.67;1.63;;;8.00;99.90;;;;;;5018346;28;20081;-79
2021/01/22 02:13:55;;;;;;;2.53;1.92;;;7.80;99.90;;;;;;5016660;28;20128;-80
2021/01/22 02:16:23;;;;;;;5.15;2.20;;;7.80;99.90;;;;;;5014647;28;20109;-79
2021/01/22 02:18:51;;;;;;;4.68;2.33;;;7.70;99.90;;;;;;5013193;28;20132;-79
2021/01/22 02:21:24;;;;;;;2.97;2.40;;;7.60;99.90;;;;;;5014908;28;20045;-80
2021/01/22 02:23:54;;;;;;;3.70;2.40;;;7.60;99.90;;;;;;5016657;28;20144;-79
2021/01/22 02:26:50;;;;;;;3.88;2.22;;;7.50;99.90;;;;;;5015832;28;20077;-78
2021/01/22 02:29:16;;;;;;;3.88;2.22;;;7.40;99.90;;;;;;5016391;28;20077;-78
2021/01/22 02:31:45;;;;;;;5.10;2.15;;;7.40;99.90;;;;;;5018347;28;20065;-79
2021/01/22 02:34:15;;;;;;;9.75;4.75;;;7.30;99.90;;;;;;5016795;28;20089;-79
2021/01/22 02:36:45;;;;;;;7.78;4.47;;;7.20;99.90;;;;;;5016549;28;20137;-79
2021/01/22 02:39:14;;;;;;;4.60;3.40;;;6.90;99.90;;;;;;5016164;28;20092;-82
2021/01/22 02:41:44;;;;;;;5.35;3.95;;;6.70;99.90;;;;;;5016921;28;20235;-79
2021/01/22 02:44:11;;;;;;;6.93;5.28;;;6.50;99.90;;;;;;5017356;28;20086;-78
2021/01/22 02:46:39;;;;;;;8.45;6.45;;;6.40;99.90;;;;;;5014439;28;20129;-79
2021/01/22 02:49:05;;;;;;;7.32;5.75;;;6.30;99.90;;;;;;5013550;28;20125;-79
2021/01/22 02:51:31;;;;;;;4.50;3.88;;;6.30;99.90;;;;;;5013308;28;20078;-78
2021/01/22 02:53:58;;;;;;;15.38;5.57;;;6.10;99.90;;;;;;5014235;28;20487;-80
2021/01/22 02:56:36;;;;;;;8.32;6.15;;;5.90;99.90;;;;;;5015685;28;20077;-81
2021/01/22 02:59:11;;;;;;;7.68;5.95;;;5.90;99.90;;;;;;5013120;28;20129;-79
2021/01/22 03:01:47;;;;;;;7.97;6.05;;;5.80;99.90;;;;;;5012757;28;20065;-79
2021/01/22 03:04:15;;;;;;;10.65;6.13;;;5.80;99.90;;;;;;5015203;28;20050;-80
2021/01/22 03:06:44;;;;;;;7.00;5.70;;;5.80;99.90;;;;;;5015144;28;20184;-80
2021/01/22 03:09:17;;;;;;;8.98;7.28;;;5.80;99.90;;;;;;5011882;28;20598;-78
2021/01/22 03:11:46;;;;;;;7.78;6.50;;;5.80;99.90;;;;;;5011941;28;20081;-78
2021/01/22 03:14:14;;;;;;;7.65;6.32;;;5.70;99.90;;;;;;5011956;28;20081;-78
2021/01/22 03:16:40;;;;;;;9.55;7.50;;;5.70;99.90;;;;;;5011921;28;20137;-79
2021/01/22 03:19:07;;;;;;;9.25;8.05;;;5.70;99.90;;;;;;5012118;28;20434;-78
2021/01/22 03:21:33;;;;;;;9.70;7.97;;;5.70;99.90;;;;;;5013691;28;20057;-79
2021/01/22 03:24:00;;;;;;;9.30;8.30;;;5.70;99.90;;;;;;5015040;28;20498;-81
2021/01/22 03:26:27;;;;;;;12.05;9.80;;;5.60;99.90;;;;;;5014818;28;20057;-80
2021/01/22 03:28:53;;;;;;;10.73;9.10;;;5.70;99.90;;;;;;5013792;28;20085;-78
2021/01/22 03:31:20;;;;;;;11.20;8.57;;;5.70;99.90;;;;;;5013505;28;20517;-78
2021/01/22 03:33:47;;;;;;;9.75;8.68;;;5.60;99.90;;;;;;5012527;28;20129;-79
2021/01/22 03:36:13;;;;;;;11.75;10.15;;;5.60;99.90;;;;;;5012984;28;20088;-77
2021/01/22 03:38:40;;;;;;;12.90;11.23;;;5.60;99.90;;;;;;5013588;28;20081;-79
2021/01/22 03:41:06;;;;;;;14.35;12.02;;;5.60;99.90;;;;;;5012816;28;20149;-79
2021/01/22 03:43:33;;;;;;;14.10;11.45;;;5.70;99.90;;;;;;5013482;28;20096;-80
2021/01/22 03:45:59;;;;;;;13.32;10.93;;;5.70;99.90;;;;;;5013088;28;20141;-79
2021/01/22 03:48:26;;;;;;;14.00;11.45;;;5.80;99.90;;;;;;5013066;28;20085;-79
2021/01/22 03:50:53;;;;;;;14.10;12.10;;;5.80;99.90;;;;;;5013803;28;20086;-80
2021/01/22 03:53:19;;;;;;;14.32;12.23;;;5.90;99.90;;;;;;5015431;28;20069;-78
2021/01/22 03:55:46;;;;;;;14.38;12.10;;;6.00;99.90;;;;;;5014144;28;20128;-78
2021/01/22 03:58:12;;;;;;;15.43;12.02;;;6.00;99.90;;;;;;5015972;28;20133;-78
2021/01/22 04:00:38;;;;;;;14.75;11.73;;;6.00;99.90;;;;;;5015619;28;20139;-78
2021/01/22 04:03:05;;;;;;;12.07;9.77;;;5.90;99.90;;;;;;5016352;28;20434;-76
2021/01/22 04:05:32;;;;;;;11.32;9.02;;;5.70;99.90;;;;;;5015913;28;20138;-78
2021/01/22 04:07:58;;;;;;;9.50;7.32;;;5.70;99.90;;;;;;5016575;28;20085;-79
2021/01/22 04:10:25;;;;;;;8.98;6.78;;;5.70;99.90;;;;;;5019668;28;20475;-79
2021/01/22 04:12:53;;;;;;;9.40;6.85;;;5.60;99.90;;;;;;5018028;28;20128;-78
2021/01/22 04:15:19;;;;;;;8.55;6.43;;;5.60;99.90;;;;;;5016432;28;20085;-77
2021/01/22 04:17:46;;;;;;;8.48;6.38;;;5.60;99.90;;;;;;5016062;28;20096;-79
2021/01/22 04:20:20;;;;;;;8.82;6.30;;;5.60;99.90;;;;;;5016181;28;20085;-79
2021/01/22 04:22:48;;;;;;;7.93;6.28;;;5.60;99.90;;;;;;5016422;28;20053;-78
2021/01/22 04:25:15;;;;;;;8.43;7.10;;;5.60;99.90;;;;;;5021833;28;20084;-80
2021/01/22 04:27:41;;;;;;;9.77;6.85;;;5.70;99.90;;;;;;5022888;28;20053;-78
2021/01/22 04:30:09;;;;;;;9.48;6.60;;;5.70;99.90;;;;;;5026585;28;20077;-79
2021/01/22 04:32:36;;;;;;;10.25;7.18;;;5.80;99.90;;;;;;5027516;28;20057;-79
2021/01/22 04:35:02;;;;;;;9.45;7.45;;;5.90;99.90;;;;;;5027691;28;20068;-79
2021/01/22 04:37:29;;;;;;;10.93;8.02;;;6.00;99.90;;;;;;5022216;28;20050;-76
2021/01/22 04:39:56;;;;;;;11.85;8.05;;;6.00;99.90;;;;;;5018408;28;20093;-78
2021/01/22 04:42:23;;;;;;;11.75;8.85;;;5.90;99.90;;;;;;5018534;28;20145;-77
2021/01/22 04:44:49;;;;;;;10.82;8.57;;;5.90;99.90;;;;;;5017354;28;20085;-79
2021/01/22 04:47:16;;;;;;;10.10;7.75;;;5.90;99.90;;;;;;5021471;28;20333;-78
2021/01/22 04:49:46;;;;;;;10.27;7.60;;;5.90;99.90;;;;;;5027065;28;20414;-79
2021/01/22 04:52:13;;;;;;;9.63;7.28;;;6.00;99.90;;;;;;5029898;28;20061;-79
2021/01/22 04:54:44;;;;;;;10.65;7.70;;;6.00;99.90;;;;;;5029166;28;20072;-80
2021/01/22 04:57:12;;;;;;;9.80;7.13;;;6.00;99.90;;;;;;5030376;28;20061;-81
2021/01/22 04:59:46;;;;;;;10.68;7.90;;;6.00;99.90;;;;;;5030829;28;20073;-82
2021/01/22 05:02:14;;;;;;;10.73;7.95;;;6.00;99.90;;;;;;5038811;28;20056;-82
2021/01/22 05:04:41;;;;;;;12.85;8.73;;;6.10;99.90;;;;;;5038400;28;20061;-81
2021/01/22 05:07:08;;;;;;;11.82;7.43;;;6.10;99.90;;;;;;5039276;28;20049;-80
2021/01/22 05:09:34;;;;;;;10.20;7.78;;;6.10;99.90;;;;;;5039375;28;20069;-82
2021/01/22 05:12:01;;;;;;;13.13;7.93;;;6.10;99.90;;;;;;5040087;28;20060;-81
2021/01/22 05:14:32;;;;;;;13.00;8.40;;;6.10;99.90;;;;;;5040018;28;20080;-81
2021/01/22 05:17:00;;;;;;;13.35;9.38;;;6.10;99.90;;;;;;5042989;28;20057;-81
2021/01/22 05:19:27;;;;;;;15.07;8.10;;;6.10;99.90;;;;;;5044228;28;20509;-81
2021/01/22 05:21:53;;;;;;;15.52;8.68;;;6.10;99.90;;;;;;5044595;28;20037;-81
2021/01/22 05:24:21;;;;;;;15.43;8.30;;;6.10;99.90;;;;;;5045117;28;20128;-84
2021/01/22 05:26:50;;;;;;;14.43;8.57;;;6.10;99.90;;;;;;5044817;28;20135;-81
2021/01/22 05:29:17;;;;;;;15.30;9.98;;;6.10;99.90;;;;;;5044820;28;20560;-82
2021/01/22 05:31:44;;;;;;;13.45;9.10;;;6.10;99.90;;;;;;5045953;28;20068;-83
2021/01/22 05:34:10;;;;;;;13.05;8.80;;;6.10;99.90;;;;;;5044359;28;20077;-83
2021/01/22 05:36:37;;;;;;;12.27;8.60;;;6.10;99.90;;;;;;5044401;28;20087;-82
2021/01/22 05:39:06;;;;;;;15.05;8.90;;;6.20;99.90;;;;;;5044178;28;20052;-83
2021/01/22 05:47:50;;;;;;;14.35;9.48;;;6.10;99.90;;;;;;5387148;22;20120;-80
2021/01/22 05:50:17;;;;;;;14.23;9.13;;;6.20;99.90;;;;;;5054816;28;20045;-80
2021/01/22 05:52:43;;;;;;;13.07;9.32;;;6.00;99.90;;;;;;5061551;28;20053;-82
2021/01/22 05:55:20;;;;;;;13.75;9.05;;;6.10;99.90;;;;;;5059626;28;20114;-80
2021/01/22 05:57:47;;;;;;;14.05;9.63;;;6.10;99.90;;;;;;5062454;28;20049;-80
2021/01/22 06:00:18;;;;;;;13.13;9.20;;;6.10;99.90;;;;;;5064763;28;20049;-80
2021/01/22 06:02:44;;;;;;;14.10;9.75;;;6.00;99.90;;;;;;5066201;28;20567;-80
2021/01/22 06:05:14;;;;;;;15.13;10.50;;;6.00;99.90;;;;;;5065620;28;20516;-80
2021/01/22 06:07:42;;;;;;;15.38;10.32;;;5.90;99.90;;;;;;5065709;28;20061;-80
2021/01/22 06:10:22;;;;;;;14.38;10.18;;;5.90;99.90;;;;;;5066633;28;20049;-81
2021/01/22 06:12:50;;;;;;;15.23;10.48;;;5.90;99.90;;;;;;5067289;28;20045;-81
2021/01/22 06:15:18;;;;;;;15.80;10.45;;;5.80;99.90;;;;;;5062699;28;20045;-80
2021/01/22 06:17:48;;;;;;;19.02;13.23;;;5.80;99.90;;;;;;5060788;28;20076;-80
2021/01/22 06:20:18;;;;;;;17.23;10.90;;;5.80;99.90;;;;;;5060737;28;20060;-80
2021/01/22 06:22:59;;;;;;;16.00;10.85;;;5.70;99.90;;;;;;5062317;28;20045;-80
2021/01/22 06:25:26;;;;;;;18.25;10.48;;;5.70;99.90;;;;;;5061435;28;20079;-80
2021/01/22 06:27:54;;;;;;;13.65;9.93;;;5.70;99.90;;;;;;5062174;28;20053;-81
2021/01/22 06:30:22;;;;;;;13.90;10.05;;;5.80;99.90;;;;;;5062177;28;20081;-81
2021/01/22 06:32:49;;;;;;;14.45;10.35;;;5.70;99.90;;;;;;5063171;28;20080;-80
2021/01/22 06:35:16;;;;;;;15.00;10.10;;;5.60;99.90;;;;;;5062706;28;20088;-80
2021/01/22 06:37:44;;;;;;;14.13;9.95;;;5.70;99.90;;;;;;5062996;28;20064;-80
2021/01/22 06:40:11;;;;;;;13.20;9.35;;;5.60;99.90;;;;;;5061871;28;20048;-82
2021/01/22 06:42:40;;;;;;;15.45;10.55;;;5.70;99.90;;;;;;5065230;28;20524;-82
2021/01/22 06:45:07;;;;;;;14.38;9.68;;;5.70;99.90;;;;;;5067417;28;20053;-81
2021/01/22 06:47:34;;;;;;;15.95;9.82;;;5.70;99.90;;;;;;5064332;28;20053;-81
2021/01/22 06:50:03;;;;;;;12.45;8.82;;;5.70;99.90;;;;;;5071389;28;20068;-82
2021/01/22 06:52:30;;;;;;;15.30;9.43;;;5.60;99.90;;;;;;5068721;28;20075;-80
2021/01/22 06:55:18;;;;;;;12.55;9.55;;;5.80;99.90;;;;;;5068081;28;20045;-83
2021/01/22 06:58:32;;;;;;;17.35;11.45;;;5.80;99.90;;;;;;5068302;28;20064;-80
2021/01/22 07:00:59;;;;;;;15.43;9.65;;;5.80;99.90;;;;;;5032530;28;20045;-81
2021/01/22 07:03:48;;;;;;;13.27;9.40;;;5.70;99.90;;;;;;5036832;28;20057;-83
2021/01/22 07:06:50;;;;;;;13.10;8.80;;;5.70;99.90;;;;;;5028956;28;20066;-81
2021/01/22 07:09:18;;;;;;;12.68;8.65;;;5.70;99.90;;;;;;5031576;28;20045;-80
2021/01/22 07:11:52;;;;;;;12.25;8.50;;;5.70;99.90;;;;;;5032090;28;20058;-81
2021/01/22 07:14:39;;;;;;;14.30;8.50;;;5.70;99.90;;;;;;5038365;28;20048;-82
2021/01/22 07:17:18;;;;;;;12.57;7.85;;;5.70;99.90;;;;;;5035115;28;20085;-81
2021/01/22 07:19:55;;;;;;;11.93;8.20;;;5.70;99.90;;;;;;5021773;28;20054;-83
2021/01/22 07:22:22;;;;;;;11.70;7.80;;;5.70;99.90;;;;;;5024650;28;20086;-82
2021/01/22 07:24:52;;;;;;;11.63;7.70;;;5.80;99.90;;;;;;5044705;28;20473;-82
2021/01/22 07:27:18;;;;;;;12.98;7.68;;;5.80;99.90;;;;;;5044172;28;20053;-82
2021/01/22 07:30:09;;;;;;;10.68;7.95;;;5.70;99.90;;;;;;5046112;28;20096;-83
2021/01/22 07:32:37;;;;;;;12.15;7.28;;;5.70;99.90;;;;;;5047413;28;20049;-82
2021/01/22 07:35:04;;;;;;;9.45;6.70;;;5.80;99.90;;;;;;5044736;28;20049;-82
2021/01/22 07:37:39;;;;;;;15.32;8.68;;;5.80;99.90;;;;;;5045252;28;20053;-82
2021/01/22 07:40:09;;;;;;;7.50;5.35;;;5.80;99.90;;;;;;5047053;28;20054;-82
2021/01/22 07:42:36;;;;;;;9.80;5.55;;;5.90;99.90;;;;;;5046587;28;20084;-82
2021/01/22 07:45:10;;;;;;;8.48;5.82;;;5.90;99.90;;;;;;5048156;28;20080;-82
2021/01/22 07:47:39;;;;;;;8.77;5.30;;;6.00;99.90;;;;;;5047768;28;20061;-82
2021/01/22 07:50:07;;;;;;;8.32;5.65;;;6.00;99.90;;;;;;5045921;28;20080;-83
2021/01/22 07:52:36;;;;;;;9.38;5.97;;;6.00;99.90;;;;;;5046314;28;20148;-82
2021/01/22 07:55:04;;;;;;;9.52;6.60;;;5.90;99.90;;;;;;5046714;28;20077;-82
2021/01/22 07:57:34;;;;;;;8.68;5.13;;;6.00;99.90;;;;;;5047942;28;20049;-82
2021/01/22 08:00:07;;;;;;;7.90;5.80;;;6.00;99.90;;;;;;5045467;28;20053;-84
2021/01/22 08:02:34;;;;;;;8.02;5.30;;;6.10;99.90;;;;;;5045058;28;20060;-81
2021/01/22 08:05:02;;;;;;;5.88;4.63;;;6.10;99.90;;;;;;5048388;28;20050;-82
2021/01/22 08:07:36;;;;;;;6.95;4.63;;;6.20;99.90;;;;;;5048466;28;20045;-83
2021/01/22 08:10:05;;;;;;;6.05;4.80;;;6.10;99.90;;;;;;5049565;28;20056;-82
2021/01/22 08:12:32;;;;;;;9.20;4.93;;;6.10;99.90;;;;;;5050307;28;20046;-82
2021/01/22 08:15:00;;;;;;;8.95;6.50;;;6.10;99.90;;;;;;5049220;28;20053;-82
2021/01/22 08:20:07;;;;;;;7.00;5.35;;;6.10;99.90;;;;;;5162017;22;20061;-82
2021/01/22 08:22:36;;;;;;;7.60;4.05;;;6.10;99.90;;;;;;5030909;28;20610;-82
2021/01/22 08:25:09;;;;;;;5.93;3.83;;;6.10;99.90;;;;;;5031143;28;20050;-82
2021/01/22 08:27:39;;;;;;;7.05;3.95;;;6.10;99.90;;;;;;5019227;28;20058;-82
2021/01/22 08:30:09;;;;;;;4.90;3.72;;;5.90;99.90;;;;;;5011207;28;20081;-82
2021/01/22 08:32:36;;;;;;;8.25;3.33;;;6.10;99.90;;;;;;5040381;23;20049;-81
2021/01/22 08:35:03;;;;;;;5.00;3.17;;;6.10;99.90;;;;;;5025598;28;20054;-80
2021/01/22 08:37:32;;;;;;;4.13;3.22;;;6.20;99.90;;;;;;5021886;28;20056;-78
2021/01/22 08:40:03;;;;;;;5.53;3.38;;;6.20;99.90;;;;;;5020071;28;20054;-80
2021/01/22 08:42:30;;;;;;;4.20;3.25;;;6.30;99.90;;;;;;5020302;28;20042;-81
2021/01/22 08:44:59;;;;;;;4.53;2.95;;;6.30;99.90;;;;;;5022400;28;20514;-80
2021/01/22 08:47:28;;;;;;;6.65;3.58;;;6.30;99.90;;;;;;5023804;28;20084;-80
2021/01/22 08:50:03;;;;;;;3.72;3.30;;;6.30;99.90;;;;;;5027193;28;20081;-82
2021/01/22 08:52:30;;;;;;;5.25;3.38;;;6.30;99.90;;;;;;5027320;28;20058;-81
2021/01/22 08:54:58;;;;;;;5.07;3.95;;;6.30;99.90;;;;;;5024731;28;20057;-79
2021/01/22 08:57:27;;;;;;;10.50;3.63;;;6.30;99.90;;;;;;5024694;28;20052;-81
2021/01/22 08:59:54;;;;;;;6.53;3.55;;;6.40;99.90;;;;;;5027665;28;20042;-81
2021/01/22 09:02:40;;;;;;;6.85;3.33;;;6.40;99.90;;;;;;5026964;28;20050;-82
2021/01/22 09:05:09;;;;;;;5.75;3.75;;;6.50;99.90;;;;;;5027306;28;20057;-81
2021/01/22 09:07:36;;;;;;;3.63;2.83;;;6.50;99.90;;;;;;5028368;28;20050;-82
2021/01/22 09:10:04;;;;;;;4.25;3.15;;;6.40;99.90;;;;;;5027886;28;20069;-82
2021/01/22 09:12:32;;;;;;;4.53;2.92;;;6.50;99.90;;;;;;5028106;28;20056;-83
2021/01/22 09:15:00;;;;;;;4.65;2.85;;;6.60;99.90;;;;;;5029357;28;20054;-83
2021/01/22 09:17:39;;;;;;;5.85;3.15;;;6.60;99.90;;;;;;5028862;28;20053;-82
2021/01/22 09:20:14;;;;;;;13.07;3.60;;;6.60;99.90;;;;;;5028777;28;20053;-82
2021/01/22 09:22:41;;;;;;;7.82;3.40;;;6.60;99.90;;;;;;5029422;28;20046;-82
2021/01/22 09:25:12;;;;;;;4.72;3.28;;;6.60;99.90;;;;;;5028906;28;20056;-82
2021/01/22 09:27:40;;;;;;;4.47;3.15;;;6.70;99.90;;;;;;5027652;28;20046;-81
2021/01/22 09:30:08;;;;;;;5.00;3.53;;;6.80;99.90;;;;;;5028184;28;20054;-82
2021/01/22 09:32:35;;;;;;;5.47;3.33;;;6.90;99.90;;;;;;5027228;28;20046;-79
2021/01/22 09:35:02;;;;;;;4.50;3.28;;;6.90;99.90;;;;;;5025945;28;20057;-80
2021/01/22 09:37:29;;;;;;;3.95;3.20;;;7.10;99.90;;;;;;5024822;28;20053;-80
2021/01/22 09:39:55;;;;;;;6.72;3.25;;;7.00;99.90;;;;;;5025610;28;20046;-81
2021/01/22 09:42:21;;;;;;;6.78;3.78;;;7.10;99.90;;;;;;5025780;28;20049;-80
2021/01/22 09:44:48;;;;;;;8.85;3.80;;;7.10;99.90;;;;;;5024961;28;20061;-81
2021/01/22 09:47:14;;;;;;;8.65;3.63;;;7.20;99.90;;;;;;5022897;28;20046;-80
2021/01/22 09:49:41;;;;;;;6.55;3.58;;;7.20;99.90;;;;;;5022898;28;20093;-81
2021/01/22 09:52:08;;;;;;;9.88;3.33;;;7.30;99.90;;;;;;5022494;28;20120;-80
2021/01/22 09:54:35;;;;;;;7.45;3.55;;;7.30;99.90;;;;;;5021630;28;20099;-82
2021/01/22 09:57:01;;;;;;;5.88;3.45;;;7.40;99.90;;;;;;5022803;28;20053;-81
2021/01/22 09:59:27;;;;;;;6.53;3.63;;;7.40;99.90;;;;;;5022035;28;20092;-80
2021/01/22 10:01:54;;;;;;;5.97;3.78;;;7.40;99.90;;;;;;5021788;28;20057;-82
2021/01/22 10:04:20;;;;;;;7.53;3.83;;;7.50;99.90;;;;;;5022289;28;20073;-82
2021/01/22 10:06:47;;;;;;;6.07;3.97;;;7.50;99.90;;;;;;5021631;28;20484;-80
2021/01/22 10:09:14;;;;;;;7.78;4.15;;;7.60;99.90;;;;;;5025323;28;20046;-82
2021/01/22 10:11:41;;;;;;;7.55;4.10;;;7.60;99.90;;;;;;5025907;28;20046;-81
2021/01/22 10:14:07;;;;;;;8.23;4.88;;;7.70;99.90;;;;;;5026899;28;20046;-79
2021/01/22 10:16:34;;;;;;;6.18;4.32;;;7.80;99.90;;;;;;5019070;28;20049;-81
2021/01/22 10:19:01;;;;;;;8.10;4.90;;;7.80;99.90;;;;;;5017828;28;20085;-80
2021/01/22 10:21:28;;;;;;;7.70;5.72;;;7.80;99.90;;;;;;5017430;28;20096;-82
2021/01/22 10:23:55;;;;;;;11.07;7.55;;;7.80;99.90;;;;;;5027807;28;20053;-81
2021/01/22 10:26:23;;;;;;;9.13;5.20;;;7.70;99.90;;;;;;5023769;28;20053;-81
2021/01/22 10:28:51;;;;;;;14.55;6.10;;;7.60;99.90;;;;;;5025197;28;20524;-80
2021/01/22 10:31:17;;;;;;;12.25;5.70;;;7.60;99.90;;;;;;5026735;28;20068;-81
2021/01/22 10:33:45;;;;;;;7.18;5.07;;;7.50;99.90;;;;;;5028376;28;20056;-81
2021/01/22 10:36:11;;;;;;;10.02;5.28;;;7.60;99.90;;;;;;5027112;28;20053;-80
2021/01/22 10:38:38;;;;;;;7.80;5.78;;;7.70;99.90;;;;;;5024060;28;20080;-80
2021/01/22 10:41:05;;;;;;;9.88;5.63;;;7.70;99.90;;;;;;5029270;28;20068;-81
2021/01/22 10:43:32;;;;;;;13.80;6.00;;;7.70;99.90;;;;;;5029113;28;20046;-82
2021/01/22 10:45:59;;;;;;;12.15;5.70;;;7.70;99.90;;;;;;5028365;28;20065;-81
2021/01/22 10:48:26;;;;;;;8.50;5.90;;;7.60;99.90;;;;;;5028535;28;20137;-81
2021/01/22 10:50:53;;;;;;;10.52;5.60;;;7.70;99.90;;;;;;5027182;28;20046;-81
2021/01/22 10:53:20;;;;;;;9.00;5.47;;;7.80;99.90;;;;;;5025139;28;20065;-81
2021/01/22 10:55:47;;;;;;;10.25;5.60;;;7.80;99.90;;;;;;5019688;28;20116;-80
2021/01/22 10:58:13;;;;;;;9.05;5.43;;;7.80;99.90;;;;;;5019144;28;20042;-80
2021/01/22 11:00:44;;;;;;;11.38;5.90;;;7.80;99.90;;;;;;5023558;28;20065;-81
2021/01/22 11:03:10;;;;;;;10.77;5.30;;;7.80;99.90;;;;;;5026394;28;20049;-81
2021/01/22 11:05:37;;;;;;;8.52;6.03;;;7.80;99.90;;;;;;5024898;28;20062;-81
2021/01/22 11:08:04;;;;;;;9.75;5.95;;;7.80;99.90;;;;;;5024084;28;20042;-80
2021/01/22 11:10:30;;;;;;;10.18;5.22;;;7.80;99.90;;;;;;5023412;28;20085;-81
2021/01/22 11:12:56;;;;;;;11.82;5.95;;;7.80;99.90;;;;;;5022337;28;20070;-81
2021/01/22 11:15:23;;;;;;;14.25;5.93;;;7.70;99.90;;;;;;5021173;28;20081;-80
2021/01/22 11:17:50;;;;;;;8.50;5.72;;;7.70;99.90;;;;;;5020610;28;20061;-80
2021/01/22 11:20:18;;;;;;;9.07;5.95;;;7.80;99.90;;;;;;5021235;28;20130;-81
2021/01/22 11:22:46;;;;;;;11.70;6.13;;;7.80;99.90;;;;;;5024511;28;20046;-80
2021/01/22 11:25:13;;;;;;;8.32;5.32;;;7.90;99.90;;;;;;5025987;28;20065;-81
2021/01/22 11:27:40;;;;;;;14.98;8.52;;;7.90;99.90;;;;;;5024724;28;20058;-80
2021/01/22 11:30:08;;;;;;;8.70;5.70;;;7.90;99.90;;;;;;5025783;28;20061;-80
2021/01/22 11:32:34;;;;;;;10.07;5.60;;;7.80;99.90;;;;;;5025374;28;20081;-80
2021/01/22 11:35:02;;;;;;;10.02;5.78;;;8.00;99.90;;;;;;5024065;28;20065;-80
2021/01/22 11:37:28;;;;;;;9.30;6.07;;;8.00;99.90;;;;;;5023544;28;20509;-81
2021/01/22 11:39:55;;;;;;;10.45;5.78;;;7.90;99.90;;;;;;5024351;28;20087;-81
2021/01/22 11:42:21;;;;;;;9.52;5.25;;;7.90;99.90;;;;;;5017953;28;20410;-80
2021/01/22 11:44:48;;;;;;;11.27;5.57;;;8.00;99.90;;;;;;5021492;28;20046;-79
2021/01/22 11:47:15;;;;;;;8.50;5.25;;;8.10;99.90;;;;;;5024233;28;20142;-79
2021/01/22 11:49:41;;;;;;;7.25;5.38;;;8.10;99.90;;;;;;5026050;28;20049;-80
2021/01/22 11:52:10;;;;;;;9.90;6.03;;;8.00;99.90;;;;;;5026733;28;20049;-80
2021/01/22 11:54:37;;;;;;;12.05;7.68;;;8.00;99.90;;;;;;5023773;28;20130;-80
2021/01/22 11:57:04;;;;;;;8.35;5.05;;;8.00;99.90;;;;;;5023102;28;20077;-80
2021/01/22 11:59:31;;;;;;;8.73;6.68;;;8.00;99.90;;;;;;5020309;28;20060;-80
2021/01/22 12:01:57;;;;;;;8.02;5.43;;;7.90;99.90;;;;;;5019756;28;20142;-81
2021/01/22 12:04:24;;;;;;;8.07;5.80;;;7.80;99.90;;;;;;5020016;28;20088;-80
2021/01/22 12:06:50;;;;;;;9.38;5.57;;;7.80;99.90;;;;;;5021016;28;20061;-82
2021/01/22 12:09:18;;;;;;;9.23;5.70;;;7.80;99.90;;;;;;5021579;28;20082;-80
2021/01/22 12:11:44;;;;;;;9.73;5.45;;;7.80;99.90;;;;;;5020173;28;20089;-81
2021/01/22 12:14:13;;;;;;;9.02;5.15;;;7.90;99.90;;;;;;5022393;28;20050;-81
2021/01/22 12:16:39;;;;;;;6.65;5.00;;;7.90;99.90;;;;;;5021553;28;20046;-81
2021/01/22 12:19:06;;;;;;;13.15;6.45;;;7.90;99.90;;;;;;5027370;28;20104;-81
2021/01/22 12:21:32;;;;;;;9.20;6.60;;;7.90;99.90;;;;;;5026526;28;20111;-81
2021/01/22 12:23:59;;;;;;;10.55;5.95;;;7.90;99.90;;;;;;5026884;28;20045;-81
2021/01/22 12:26:26;;;;;;;7.30;5.30;;;7.90;99.90;;;;;;5027153;28;20108;-81
2021/01/22 12:28:53;;;;;;;9.65;5.85;;;7.90;99.90;;;;;;5028531;28;20042;-81
2021/01/22 12:31:19;;;;;;;10.52;5.45;;;8.00;99.90;;;;;;5029178;28;20058;-81
2021/01/22 12:33:46;;;;;;;9.98;5.65;;;8.00;99.90;;;;;;5029429;28;20045;-81
2021/01/22 12:36:12;;;;;;;9.82;6.05;;;8.00;99.90;;;;;;5029007;28;20103;-81
2021/01/22 12:38:39;;;;;;;9.98;7.05;;;7.90;99.90;;;;;;5030704;28;20061;-79
2021/01/22 12:41:06;;;;;;;8.98;6.40;;;7.80;99.90;;;;;;5031035;28;20061;-81
2021/01/22 12:43:33;;;;;;;10.15;6.60;;;7.90;99.90;;;;;;5029322;28;20050;-80
2021/01/22 12:46:00;;;;;;;11.90;6.90;;;7.90;99.90;;;;;;5027947;28;20490;-80
2021/01/22 12:48:26;;;;;;;19.95;6.38;;;7.90;99.90;;;;;;5026776;28;20115;-80
2021/01/22 12:50:53;;;;;;;11.50;6.47;;;7.90;99.90;;;;;;5026046;28;20100;-81
2021/01/22 12:53:19;;;;;;;10.98;6.13;;;7.90;99.90;;;;;;5023305;28;20076;-80
2021/01/22 12:55:46;;;;;;;9.00;6.07;;;7.90;99.90;;;;;;5021232;28;20057;-78
2021/01/22 12:58:12;;;;;;;9.40;6.43;;;7.80;99.90;;;;;;5021875;28;20053;-79
2021/01/22 13:00:39;;;;;;;10.35;6.43;;;7.80;99.90;;;;;;5027345;28;20104;-80
2021/01/22 13:03:06;;;;;;;8.73;6.18;;;7.80;99.90;;;;;;5019608;28;20053;-79
2021/01/22 13:05:33;;;;;;;10.82;6.18;;;7.80;99.90;;;;;;5021358;28;20054;-77
2021/01/22 13:07:59;;;;;;;7.72;6.38;;;7.80;99.90;;;;;;5020447;28;20537;-78
2021/01/22 13:10:26;;;;;;;11.52;6.65;;;7.70;99.90;;;;;;5019047;28;20557;-78
2021/01/22 13:12:52;;;;;;;9.43;6.47;;;7.70;99.90;;;;;;5018747;28;20089;-79
2021/01/22 13:15:19;;;;;;;11.73;6.75;;;7.80;99.90;;;;;;5021166;28;20050;-79
2021/01/22 13:17:46;;;;;;;10.40;6.57;;;7.80;99.90;;;;;;5024864;28;20077;-80
2021/01/22 13:20:13;;;;;;;14.18;6.32;;;7.80;99.90;;;;;;5024761;28;20089;-80